Searles, Minnesota
Current Conditions -  °F | °C
As of 4:33 AM on Saturday 22 Nov 2014 (Local Time) from KULM Reporting Station
Haze Haze  
Wind Chill: 23°   Ceiling: Unl
Heat Index: 30°   Visibility: 2mi
Dew Point: 30°   Wind: 7mph
Humidity: 100%   Direction: 200°SSW
Pressure: 29.79"   Gusts: NA
Location:  44.23°N, 94.44°W
Report Text: KULM 221033Z AUTO 20006KT 2SM BR CLR M01/M01 A2979 RMK AO2
Loading
Personal Weather Stations






























Interactive Weather Map New forecast layout! Learn more

10-Day Weather Forecast

Advertisements
Track Severe Weather on mobile